Warr Acres, Oklahoma
Current Conditions -  °F | °C
As of 11:53 AM on Saturday 20 Dec 2014 (Local Time) from KPWA Reporting Station
Overcast Overcast  
Wind Chill: 38°   Ceiling: 1800
Heat Index: 44°   Visibility: 7mi
Dew Point: 37°   Wind: 12mph
Humidity: 76%   Direction: 190°S
Pressure: 30.21"   Gusts: NA
Location:  35.5369°N, 97.6228°W
Report Text: KPWA 201753Z 19010KT 7SM OVC018 07/03 A3021 RMK AO2 SLP233 T00670028 10067 20039 58004
Loading
Personal Weather Stations






























Interactive Weather Map New forecast layout! Learn more

10-Day Weather Forecast

Advertisements
Track Severe Weather on mobile